This is the latest recevied weather packets stored in our database for station/object K7MT-WX. If no packets are shown the sender has not sent any weather packets the latest 10 day(s).
| Time | Temp. | Humidity | Pressure | Rain* | Wind** | Luminosity | Snow |
|---|---|---|---|---|---|---|---|
| 1777614639 | 6.67° C | 56% | 1019.9 hPa | 0 mm | - | - | - |
| 1777613739 | 7.22° C | 54% | 1019.9 hPa | 0 mm | - | - | - |
| 1777612839 | 7.22° C | 53% | 1019.9 hPa | 0 mm | - | - | - |
| 1777611939 | 7.78° C | 53% | 1019.9 hPa | 0 mm | - | - | - |
| 1777611009 | 7.78° C | 53% | 1019.9 hPa | 0 mm | - | - | - |
| 1777610109 | 7.78° C | 53% | 1019.8 hPa | 0 mm | - | - | - |
| 1777609209 | 7.78° C | 53% | 1019.6 hPa | 0 mm | - | - | - |
| 1777608279 | 7.78° C | 53% | 1019.6 hPa | 0 mm | - | - | - |
| 1777607379 | 8.89° C | 49% | 1019.4 hPa | 0 mm | - | - | - |
| 1777606479 | 9.44° C | 48% | 1019.3 hPa | 0 mm | - | - | - |
| 1777605579 | 11.11° C | 43% | 1019 hPa | 0 mm | - | - | - |
| 1777604679 | 12.22° C | 37% | 1018.9 hPa | 0 mm | - | - | - |
| 1777603779 | 13.33° C | 35% | 1018.9 hPa | 0 mm | - | - | - |
| 1777602879 | 15° C | 30% | 1018.9 hPa | 0 mm | - | - | - |
| 1777601979 | 16.67° C | 28% | 1018.9 hPa | 0 mm | - | - | - |
| 1777601079 | 17.78° C | 25% | 1018.9 hPa | 0 mm | - | - | - |
| 1777600179 | 17.78° C | 24% | 1019 hPa | 0 mm | - | - | - |
| 1777599279 | 17.78° C | 24% | 1018.9 hPa | 0 mm | - | - | - |
| 1777598379 | 17.78° C | 25% | 1018.9 hPa | 0 mm | - | - | - |
| 1777597479 | 17.78° C | 26% | 1019 hPa | 0 mm | - | - | - |
| 1777596579 | 17.78° C | 24% | 1019 hPa | 0 mm | - | - | - |
| 1777595649 | 17.22° C | 25% | 1019.1 hPa | 0 mm | - | - | - |
| 1777594749 | 18.33° C | 24% | 1019.1 hPa | 0 mm | - | - | - |
| 1777593849 | 17.78° C | 25% | 1019.1 hPa | 0 mm | - | - | - |
| 1777592949 | 17.78° C | 26% | 1019.3 hPa | 0 mm | - | - | - |
* Rain latest hour (hover to see other rain measurements)
** Current wind speed in m/s (hover to see current wind gust speed)